Time;durP1;ratioP1;P1;durP2;ratioP2;P2;SDS_P1;SDS_P2;PMS_P1;PMS_P2;Temp;Humidity;BMP_temperature;BMP_pressure;BME280_temperature;BME280_humidity;BME280_pressure;Samples;Min_cycle;Max_cycle;Signal;HPM_P1;HPM_P2
2023/03/16 00:01:07;;;;;;;;;;;;;;;10.91;45.39;101239.00;4940192;28;127474;-66
2023/03/16 00:03:33;;;;;;;;;;;;;;;10.90;44.83;101247.34;4956441;28;128975;-65
2023/03/16 00:05:59;;;;;;;;;;;;;;;10.88;45.25;101244.88;4958149;28;127523;-65
2023/03/16 00:08:25;;;;;;;;;;;;;;;10.86;44.96;101247.03;4958371;28;122692;-61
2023/03/16 00:10:52;;;;;;;;;;;;;;;10.85;45.11;101241.91;4960666;28;126789;-62
2023/03/16 00:13:22;;;;;;;;;;;;;;;10.84;45.38;101243.75;4942042;28;98714;-64
2023/03/16 00:16:03;;;;;;;;;;;;;;;10.83;45.26;101247.50;4965312;28;98010;-61
2023/03/16 00:18:29;;;;;;;;;;;;;;;10.80;45.08;101254.22;4960118;28;98591;-61
2023/03/16 00:21:00;;;;;;;;;;;;;;;10.80;45.22;101254.22;4957890;28;122179;-61
2023/03/16 00:23:27;;;;;;;;;;;;;;;10.78;44.90;101252.84;4940688;28;98911;-65
2023/03/16 00:25:57;;;;;;;;;;;;;;;10.77;44.92;101256.63;4954063;28;98577;-65
2023/03/16 00:28:23;;;;;;;;;;;;;;;10.76;44.99;101246.88;4961588;28;99237;-61
2023/03/16 00:30:49;;;;;;;;;;;;;;;10.74;44.95;101257.94;4958185;28;98232;-60
2023/03/16 00:33:15;;;;;;;;;;;;;;;10.74;44.86;101259.81;4971568;28;98536;-64
2023/03/16 00:35:48;;;;;;;;;;;;;;;10.71;44.92;101252.22;4955435;28;111271;-62
2023/03/16 00:38:17;;;;;;;;;;;;;;;10.69;45.10;101257.88;4958907;28;98088;-61
2023/03/16 00:40:44;;;;;;;;;;;;;;;10.71;45.04;101260.31;4961362;28;97976;-63
2023/03/16 00:43:10;;;;;;;;;;;;;;;10.67;44.91;101262.69;4959084;28;98244;-61
2023/03/16 00:45:36;;;;;;;;;;;;;;;10.66;45.32;101254.84;4957134;28;126146;-64
2023/03/16 00:48:02;;;;;;;;;;;;;;;10.65;44.98;101267.50;4960339;28;98162;-65
2023/03/16 00:50:27;;;;;;;;;;;;;;;10.63;45.32;101269.63;4954665;28;101434;-64
2023/03/16 00:52:53;;;;;;;;;;;;;;;10.63;45.27;101272.31;4953039;28;127266;-64
2023/03/16 00:55:19;;;;;;;;;;;;;;;10.62;45.47;101275.28;4961805;28;98292;-65
2023/03/16 00:57:45;;;;;;;;;;;;;;;10.61;45.28;101276.31;4958581;28;122599;-64
2023/03/16 01:00:15;;;;;;;;;;;;;;;10.60;44.82;101274.69;4952373;28;126014;-64
2023/03/16 01:02:44;;;;;;;;;;;;;;;10.57;45.21;101271.44;4959892;28;97882;-61
2023/03/16 01:05:11;;;;;;;;;;;;;;;10.56;45.05;101272.50;4958530;28;99853;-61
2023/03/16 01:07:38;;;;;;;;;;;;;;;10.55;45.23;101273.56;4958967;28;99429;-64
2023/03/16 01:10:04;;;;;;;;;;;;;;;10.54;44.85;101282.72;4965651;28;98178;-61
2023/03/16 01:12:30;;;;;;;;;;;;;;;10.52;44.82;101282.13;4961273;28;122932;-64
2023/03/16 01:14:56;;;;;;;;;;;;;;;10.52;45.11;101275.94;4959594;28;98435;-66
2023/03/16 01:17:22;;;;;;;;;;;;;;;10.51;45.13;101285.91;4939717;28;98449;-61
2023/03/16 01:19:48;;;;;;;;;;;;;;;10.49;44.97;101281.81;4958861;28;128475;-65
2023/03/16 01:22:16;;;;;;;;;;;;;;;10.47;45.20;101290.16;4936835;28;98257;-61
2023/03/16 01:24:44;;;;;;;;;;;;;;;10.46;45.19;101285.84;4958684;28;98440;-61
2023/03/16 01:27:10;;;;;;;;;;;;;;;10.45;44.79;101292.31;4958348;28;98983;-65
2023/03/16 01:29:36;;;;;;;;;;;;;;;10.44;45.02;101292.53;4968682;28;124130;-61
2023/03/16 01:32:03;;;;;;;;;;;;;;;10.44;45.26;101295.22;4954277;28;98548;-64
2023/03/16 01:34:29;;;;;;;;;;;;;;;10.42;45.16;101298.19;4959180;28;98412;-65
2023/03/16 01:36:55;;;;;;;;;;;;;;;10.41;45.11;101298.41;4958395;28;98274;-61
2023/03/16 01:39:21;;;;;;;;;;;;;;;10.40;45.33;101296.78;4957266;28;128858;-64
2023/03/16 01:41:47;;;;;;;;;;;;;;;10.38;45.13;101293.53;4958439;28;107290;-65
2023/03/16 01:44:14;;;;;;;;;;;;;;;10.36;44.97;101292.94;4946648;28;98259;-62
2023/03/16 01:46:43;;;;;;;;;;;;;;;10.35;44.79;101286.75;4958810;28;97962;-65
2023/03/16 01:49:31;;;;;;;;;;;;;;;10.34;45.28;101287.81;4968030;28;99405;-61
2023/03/16 01:52:04;;;;;;;;;;;;;;;10.31;45.32;101289.09;4955177;28;99124;-63
2023/03/16 01:54:35;;;;;;;;;;;;;;;10.31;45.40;101289.09;4948899;28;127833;-61
2023/03/16 01:57:16;;;;;;;;;;;;;;;10.30;45.42;101290.19;4949523;28;116808;-61
2023/03/16 01:59:52;;;;;;;;;;;;;;;10.27;44.73;101289.84;4954806;28;126275;-61
2023/03/16 02:02:20;;;;;;;;;;;;;;;10.25;44.96;101284.69;4956748;28;98492;-61
2023/03/16 02:04:49;;;;;;;;;;;;;;;10.25;44.94;101286.56;4939833;28;126705;-65
2023/03/16 02:07:16;;;;;;;;;;;;;;;10.24;45.12;101295.69;4967096;28;121174;-61
2023/03/16 02:09:42;;;;;;;;;;;;;;;10.22;45.40;101282.47;4919301;28;99250;-61
2023/03/16 02:12:16;;;;;;;;;;;;;;;10.20;44.99;101279.19;4955077;28;98840;-65
2023/03/16 02:14:45;;;;;;;;;;;;;;;10.18;45.15;101281.34;4959428;28;98263;-61
2023/03/16 02:17:13;;;;;;;;;;;;;;;10.18;44.72;101285.88;4956950;28;98113;-64
2023/03/16 02:19:45;;;;;;;;;;;;;;;10.16;45.18;101282.63;4961272;28;99721;-61
2023/03/16 02:22:12;;;;;;;;;;;;;;;10.14;45.34;101282.88;4957490;28;98937;-61
2023/03/16 02:24:39;;;;;;;;;;;;;;;10.13;45.40;101286.63;4954381;28;98359;-61
2023/03/16 02:27:07;;;;;;;;;;;;;;;10.12;45.30;101290.38;4948882;28;97993;-61
2023/03/16 02:29:53;;;;;;;;;;;;;;;10.10;44.90;101289.81;4928864;28;98579;-61
2023/03/16 02:32:19;;;;;;;;;;;;;;;10.08;44.75;101291.94;4956587;28;98773;-64
2023/03/16 02:34:45;;;;;;;;;;;;;;;10.06;45.11;101291.34;4939397;28;127095;-66
2023/03/16 02:37:11;;;;;;;;;;;;;;;10.05;45.09;101292.41;4956981;28;121726;-66
2023/03/16 02:39:37;;;;;;;;;;;;;;;10.04;44.75;101290.78;4963369;28;99067;-66
2023/03/16 02:42:03;;;;;;;;;;;;;;;10.03;44.79;101289.16;4955186;28;126074;-65
2023/03/16 02:44:34;;;;;;;;;;;;;;;10.00;45.36;101285.06;4951612;28;127210;-65
2023/03/16 02:47:02;;;;;;;;;;;;;;;10.01;44.89;101283.19;4922457;28;118536;-65
2023/03/16 02:49:39;;;;;;;;;;;;;;;10.00;45.01;101290.44;4937080;28;98764;-61
2023/03/16 02:52:05;;;;;;;;;;;;;;;9.98;45.24;101289.06;4937944;28;98133;-61
2023/03/16 02:54:31;;;;;;;;;;;;;;;9.98;44.92;101291.75;4959907;28;127596;-61
2023/03/16 02:56:57;;;;;;;;;;;;;;;9.95;45.04;101290.38;4960032;28;106938;-61
2023/03/16 02:59:23;;;;;;;;;;;;;;;9.95;44.93;101294.94;4958655;28;128118;-66
2023/03/16 03:01:50;;;;;;;;;;;;;;;9.94;45.09;101301.38;4954324;28;128104;-64
2023/03/16 03:04:16;;;;;;;;;;;;;;;9.93;44.82;101297.06;4969461;28;98984;-61
2023/03/16 03:06:42;;;;;;;;;;;;;;;9.93;45.30;101299.75;4954821;28;115057;-65
2023/03/16 03:09:10;;;;;;;;;;;;;;;9.91;44.76;101305.38;4954453;28;125984;-61
2023/03/16 03:11:36;;;;;;;;;;;;;;;9.90;45.08;101301.03;4950326;28;98174;-62
2023/03/16 03:14:02;;;;;;;;;;;;;;;9.89;44.90;101303.97;4952247;28;117640;-61
2023/03/16 03:16:28;;;;;;;;;;;;;;;9.88;44.93;101305.84;4956290;28;98115;-61
2023/03/16 03:18:54;;;;;;;;;;;;;;;9.87;45.27;101304.25;4955090;28;121174;-64
2023/03/16 03:21:20;;;;;;;;;;;;;;;9.87;44.95;101314.19;4961135;28;128060;-62
2023/03/16 03:23:46;;;;;;;;;;;;;;;9.87;44.68;101316.88;4958651;28;121172;-61
2023/03/16 03:26:14;;;;;;;;;;;;;;;9.84;44.73;101319.00;4952838;28;121749;-65
2023/03/16 03:28:40;;;;;;;;;;;;;;;9.82;45.14;101315.75;4953227;28;98953;-66
2023/03/16 03:31:06;;;;;;;;;;;;;;;9.82;44.92;101314.91;4959284;28;99147;-61
2023/03/16 03:33:35;;;;;;;;;;;;;;;9.81;45.29;101316.78;4954068;28;124245;-65
2023/03/16 03:36:01;;;;;;;;;;;;;;;9.80;45.19;101311.63;4940279;28;99139;-65
2023/03/16 03:38:27;;;;;;;;;;;;;;;9.78;45.00;101316.44;4948322;28;127912;-66
2023/03/16 03:40:53;;;;;;;;;;;;;;;9.76;45.32;101311.31;4963282;28;128054;-64
2023/03/16 03:43:19;;;;;;;;;;;;;;;9.77;45.01;101318.31;4947398;28;121630;-62
2023/03/16 03:45:45;;;;;;;;;;;;;;;9.76;45.15;101323.94;4956152;28;97814;-65
2023/03/16 03:48:11;;;;;;;;;;;;;;;9.74;45.03;101329.56;4955348;28;107187;-61
2023/03/16 03:50:39;;;;;;;;;;;;;;;9.73;45.24;101332.50;4957734;28;98532;-61
2023/03/16 03:53:05;;;;;;;;;;;;;;;9.72;45.58;101333.56;4955549;28;98326;-65
2023/03/16 03:55:31;;;;;;;;;;;;;;;9.70;45.44;101333.78;4952581;28;97958;-64
2023/03/16 03:57:57;;;;;;;;;;;;;;;9.69;44.78;101326.78;4955036;28;97961;-64
2023/03/16 04:00:23;;;;;;;;;;;;;;;9.69;45.43;101331.34;4968910;28;128410;-65
2023/03/16 04:02:50;;;;;;;;;;;;;;;9.67;45.02;101331.59;4962286;28;98353;-65
2023/03/16 04:05:16;;;;;;;;;;;;;;;9.66;45.26;101329.94;4957722;28;99577;-62
2023/03/16 04:07:42;;;;;;;;;;;;;;;9.66;44.74;101334.50;4956386;28;126559;-62
2023/03/16 04:10:08;;;;;;;;;;;;;;;9.64;44.60;101334.78;4954615;28;120329;-61
2023/03/16 04:12:34;;;;;;;;;;;;;;;9.64;45.10;101342.84;4959789;28;97978;-61
2023/03/16 04:15:00;;;;;;;;;;;;;;;9.62;44.94;101344.13;4960250;28;122616;-64
2023/03/16 04:17:26;;;;;;;;;;;;;;;9.62;44.86;101338.75;4941482;28;126032;-61
2023/03/16 04:19:52;;;;;;;;;;;;;;;9.61;44.86;101337.13;4969904;28;127193;-61
2023/03/16 04:22:17;;;;;;;;;;;;;;;9.59;45.11;101340.06;4956094;28;127821;-61
2023/03/16 04:24:44;;;;;;;;;;;;;;;9.58;44.38;101339.22;4936823;28;122217;-61
2023/03/16 04:27:13;;;;;;;;;;;;;;;9.56;44.74;101344.03;4955687;28;98268;-64
2023/03/16 04:29:38;;;;;;;;;;;;;;;9.56;45.32;101338.66;4957632;28;98684;-65
2023/03/16 04:32:07;;;;;;;;;;;;;;;9.54;45.23;101338.06;4960654;28;98249;-65
2023/03/16 04:34:33;;;;;;;;;;;;;;;9.54;45.01;101331.88;4961193;28;99908;-65
2023/03/16 04:37:01;;;;;;;;;;;;;;;9.53;44.88;101335.63;4972842;28;98885;-64
2023/03/16 04:39:26;;;;;;;;;;;;;;;9.50;45.35;101333.41;4951430;28;98563;-65
2023/03/16 04:41:52;;;;;;;;;;;;;;;9.49;44.85;101329.91;4942208;28;127583;-64
2023/03/16 04:44:18;;;;;;;;;;;;;;;9.49;45.17;101342.53;4953236;28;119700;-61
2023/03/16 04:46:44;;;;;;;;;;;;;;;9.48;45.26;101343.59;4957480;28;127986;-61
2023/03/16 04:49:10;;;;;;;;;;;;;;;9.46;44.99;101343.00;4943145;28;103892;-65
2023/03/16 04:51:36;;;;;;;;;;;;;;;9.45;44.84;101342.19;4953089;28;127317;-65
2023/03/16 04:54:03;;;;;;;;;;;;;;;9.44;44.60;101348.66;4960685;28;98090;-66
2023/03/16 04:56:29;;;;;;;;;;;;;;;9.44;44.90;101347.84;4970099;28;128984;-61
2023/03/16 04:58:55;;;;;;;;;;;;;;;9.43;45.09;101340.78;4956274;28;128258;-64
2023/03/16 05:01:22;;;;;;;;;;;;;;;9.42;44.60;101347.25;4952187;28;98499;-61
2023/03/16 05:03:48;;;;;;;;;;;;;;;9.41;45.09;101351.00;4954735;28;97753;-62
2023/03/16 05:06:14;;;;;;;;;;;;;;;9.40;45.02;101350.19;4958238;28;98759;-65
2023/03/16 05:08:40;;;;;;;;;;;;;;;9.40;44.88;101350.19;4939598;28;126689;-61
2023/03/16 05:11:06;;;;;;;;;;;;;;;9.40;44.75;101350.19;4958374;28;105874;-64
2023/03/16 05:13:32;;;;;;;;;;;;;;;9.39;45.32;101351.22;4953790;28;121497;-61
2023/03/16 05:15:58;;;;;;;;;;;;;;;9.38;44.64;101352.28;4967424;28;97740;-66
2023/03/16 05:18:24;;;;;;;;;;;;;;;9.38;45.03;101348.78;4955686;28;128027;-65
2023/03/16 05:20:52;;;;;;;;;;;;;;;9.38;44.82;101348.78;4940348;28;126919;-61
2023/03/16 05:23:18;;;;;;;;;;;;;;;9.38;44.71;101351.47;4956352;28;98018;-64
2023/03/16 05:25:46;;;;;;;;;;;;;;;9.38;45.30;101351.47;4952156;28;119269;-61
2023/03/16 05:28:11;;;;;;;;;;;;;;;9.40;44.68;101355.56;4937337;28;99825;-62
2023/03/16 05:30:37;;;;;;;;;;;;;;;9.39;44.76;101359.28;4954232;28;127615;-66
2023/03/16 05:33:03;;;;;;;;;;;;;;;9.40;44.67;101357.44;4969085;28;123603;-65
2023/03/16 05:35:29;;;;;;;;;;;;;;;9.41;44.81;101361.75;4955016;28;98625;-65
2023/03/16 05:37:56;;;;;;;;;;;;;;;9.42;45.16;101352.63;4960191;28;98217;-61
2023/03/16 05:40:22;;;;;;;;;;;;;;;9.43;44.33;101360.47;4956967;28;98106;-67
2023/03/16 05:42:52;;;;;;;;;;;;;;;9.45;45.05;101357.53;4958607;28;97912;-64
2023/03/16 05:45:18;;;;;;;;;;;;;;;9.46;44.73;101362.66;4959277;28;97965;-65
2023/03/16 05:47:44;;;;;;;;;;;;;;;9.49;44.70;101366.75;4955844;28;98687;-61
2023/03/16 05:50:11;;;;;;;;;;;;;;;9.52;44.60;101367.13;4957651;28;120887;-65
2023/03/16 05:52:37;;;;;;;;;;;;;;;9.54;44.77;101364.97;4975188;28;98149;-64
2023/03/16 05:55:04;;;;;;;;;;;;;;;9.57;45.00;101363.69;4960610;28;117255;-61
2023/03/16 05:57:31;;;;;;;;;;;;;;;9.58;44.38;101368.81;4938330;28;121380;-65
2023/03/16 05:59:57;;;;;;;;;;;;;;;9.63;45.29;101370.84;4960371;28;97979;-61
2023/03/16 06:02:23;;;;;;;;;;;;;;;9.65;44.70;101374.09;4956338;28;97899;-65
2023/03/16 06:04:49;;;;;;;;;;;;;;;9.69;44.82;101375.25;4946947;28;126192;-67
2023/03/16 06:07:15;;;;;;;;;;;;;;;9.72;44.52;101364.00;4960300;28;98839;-65
2023/03/16 06:09:41;;;;;;;;;;;;;;;9.77;44.54;101376.75;4957169;28;98194;-62
2023/03/16 06:12:07;;;;;;;;;;;;;;;9.80;44.66;101370.88;4967226;28;120445;-61
2023/03/16 06:14:33;;;;;;;;;;;;;;;9.84;44.09;101372.03;4958451;28;98532;-61
2023/03/16 06:16:58;;;;;;;;;;;;;;;9.89;44.46;101368.63;4962305;28;126799;-62
2023/03/16 06:19:24;;;;;;;;;;;;;;;9.92;44.86;101365.44;4946403;28;127336;-66
2023/03/16 06:21:50;;;;;;;;;;;;;;;9.96;44.08;101382.75;4957697;28;120467;-61
2023/03/16 06:24:16;;;;;;;;;;;;;;;10.00;44.63;101382.03;4949035;28;98689;-61
2023/03/16 06:26:42;;;;;;;;;;;;;;;10.04;44.23;101372.41;4942000;28;127620;-65
2023/03/16 06:29:08;;;;;;;;;;;;;;;10.09;44.35;101374.38;4963964;28;127013;-61
2023/03/16 06:31:34;;;;;;;;;;;;;;;10.15;44.19;101372.59;4957184;28;122120;-61
2023/03/16 06:34:01;;;;;;;;;;;;;;;10.18;44.79;101378.31;4923910;28;100090;-61
2023/03/16 06:36:27;;;;;;;;;;;;;;;10.25;44.42;101388.97;4960038;28;97898;-62
2023/03/16 06:38:53;;;;;;;;;;;;;;;10.30;44.67;101384.50;4957276;28;98334;-65
2023/03/16 06:41:19;;;;;;;;;;;;;;;10.35;44.08;101378.38;4954628;28;97953;-61
2023/03/16 06:43:44;;;;;;;;;;;;;;;10.43;44.51;101387.94;4955619;28;127570;-61
2023/03/16 06:46:10;;;;;;;;;;;;;;;10.48;44.65;101371.84;4943923;28;127131;-65
2023/03/16 06:48:36;;;;;;;;;;;;;;;10.52;44.59;101371.09;4971718;28;127135;-66
2023/03/16 06:51:02;;;;;;;;;;;;;;;10.61;44.49;101384.16;4936160;28;98237;-61
2023/03/16 06:53:28;;;;;;;;;;;;;;;10.67;43.92;101378.63;4922067;28;98555;-62
2023/03/16 06:55:54;;;;;;;;;;;;;;;10.75;44.42;101377.41;4955388;28;98360;-65
2023/03/16 06:58:20;;;;;;;;;;;;;;;10.83;44.32;101376.97;4953275;28;126401;-61
2023/03/16 07:00:46;;;;;;;;;;;;;;;10.91;44.37;101379.25;4957100;28;122356;-65
2023/03/16 07:03:12;;;;;;;;;;;;;;;11.00;43.90;101375.09;4954836;28;128556;-65
2023/03/16 07:05:38;;;;;;;;;;;;;;;11.10;44.11;101381.69;4954261;28;98501;-61
2023/03/16 07:08:04;;;;;;;;;;;;;;;11.19;43.98;101390.97;4964278;28;127803;-67
2023/03/16 07:10:30;;;;;;;;;;;;;;;11.29;44.01;101389.25;4958391;28;97988;-64
2023/03/16 07:12:56;;;;;;;;;;;;;;;11.40;43.92;101392.09;4954098;28;126537;-64
2023/03/16 07:15:25;;;;;;;;;;;;;;;11.55;43.66;101394.94;4950440;28;127990;-66
2023/03/16 07:17:51;;;;;;;;;;;;;;;11.73;43.67;101396.53;4938129;28;97898;-62
2023/03/16 07:20:17;;;;;;;;;;;;;;;11.90;43.59;101397.28;4956272;28;98037;-63
2023/03/16 07:22:43;;;;;;;;;;;;;;;12.08;43.47;101395.31;4962471;28;121562;-65
2023/03/16 07:25:12;;;;;;;;;;;;;;;12.27;43.49;101399.31;4960029;28;98537;-62
2023/03/16 07:27:40;;;;;;;;;;;;;;;12.44;43.22;101394.59;4958596;28;98220;-62
2023/03/16 07:30:06;;;;;;;;;;;;;;;12.60;43.31;101394.72;4956122;28;98005;-62
2023/03/16 07:32:32;;;;;;;;;;;;;;;12.79;43.18;101401.34;4952121;28;119333;-62
2023/03/16 07:34:58;;;;;;;;;;;;;;;12.95;43.12;101403.09;4961220;28;98466;-66
2023/03/16 07:37:25;;;;;;;;;;;;;;;13.08;43.22;101409.94;4952938;28;126415;-62
2023/03/16 07:39:50;;;;;;;;;;;;;;;13.26;42.97;101406.84;4955932;28;97835;-62
2023/03/16 07:42:16;;;;;;;;;;;;;;;13.48;42.91;101409.41;4959656;28;128896;-65
2023/03/16 07:44:42;;;;;;;;;;;;;;;13.72;42.80;101404.34;4974392;28;101293;-62
2023/03/16 07:47:11;;;;;;;;;;;;;;;14.00;42.58;101404.97;4946809;28;127088;-64
2023/03/16 07:49:37;;;;;;;;;;;;;;;14.33;42.18;101403.66;4942126;28;117671;-65
2023/03/16 07:52:03;;;;;;;;;;;;;;;14.55;42.50;101413.47;4957380;28;99489;-62
2023/03/16 07:54:28;;;;;;;;;;;;;;;14.71;42.34;101409.69;4955367;28;128452;-66
2023/03/16 07:56:54;;;;;;;;;;;;;;;14.94;42.02;101406.41;4955529;28;127221;-62
2023/03/16 07:59:20;;;;;;;;;;;;;;;15.27;42.05;101414.22;4952416;28;122600;-62
2023/03/16 08:01:46;;;;;;;;;;;;;;;15.52;41.88;101419.53;4954195;28;127731;-62
2023/03/16 08:04:12;;;;;;;;;;;;;;;15.76;41.74;101410.78;4938413;28;98232;-66
2023/03/16 08:06:38;;;;;;;;;;;;;;;16.30;41.35;101405.28;4955787;28;120308;-65
2023/03/16 08:09:04;;;;;;;;;;;;;;;16.59;41.40;101412.72;4956652;28;97969;-65
2023/03/16 08:11:30;;;;;;;;;;;;;;;17.16;41.11;101405.66;4952000;28;99958;-66
2023/03/16 08:13:56;;;;;;;;;;;;;;;17.62;40.69;101403.22;4959150;28;114081;-66
2023/03/16 08:16:22;;;;;;;;;;;;;;;18.12;40.42;101411.06;4961680;28;127351;-67
2023/03/16 08:18:49;;;;;;;;;;;;;;;18.49;40.41;101409.38;4956762;28;120219;-62
2023/03/16 08:21:16;;;;;;;;;;;;;;;19.05;40.20;101413.91;4954845;28;98304;-66
2023/03/16 08:23:47;;;;;;;;;;;;;;;19.88;39.76;101419.38;4957444;28;98530;-63
2023/03/16 08:26:17;;;;;;;;;;;;;;;20.93;38.81;101411.66;4954294;28;98506;-67
2023/03/16 08:28:44;;;;;;;;;;;;;;;21.31;38.86;101412.00;4956216;28;98184;-64
2023/03/16 08:31:11;;;;;;;;;;;;;;;21.99;38.48;101419.94;4954973;28;99270;-63
2023/03/16 08:33:37;;;;;;;;;;;;;;;22.29;38.74;101423.72;4955041;28;98671;-67
2023/03/16 08:36:05;;;;;;;;;;;;;;;22.69;38.67;101426.25;4957367;28;98144;-63
2023/03/16 08:38:32;;;;;;;;;;;;;;;23.20;38.17;101425.31;4956280;28;120498;-63
2023/03/16 08:40:59;;;;;;;;;;;;;;;23.16;38.77;101431.81;4956510;28;98370;-67
2023/03/16 08:43:25;;;;;;;;;;;;;;;23.51;38.35;101427.75;4957076;28;98868;-63
2023/03/16 08:45:52;;;;;;;;;;;;;;;24.42;37.81;101425.38;4952427;28;98582;-67
2023/03/16 08:48:18;;;;;;;;;;;;;;;25.15;37.46;101433.09;4936374;28;98019;-64
2023/03/16 08:50:45;;;;;;;;;;;;;;;26.11;37.03;101438.09;4953064;28;97796;-64
2023/03/16 08:53:11;;;;;;;;;;;;;;;26.40;37.31;101441.66;4955998;28;98936;-64
2023/03/16 08:55:37;;;;;;;;;;;;;;;26.75;37.13;101441.88;4936125;28;121277;-67
2023/03/16 08:58:03;;;;;;;;;;;;;;;26.73;37.76;101448.94;4954293;28;121466;-64
2023/03/16 09:00:28;;;;;;;;;;;;;;;26.76;37.82;101449.00;4956756;28;126347;-68
2023/03/16 09:02:55;;;;;;;;;;;;;;;26.88;38.15;101445.38;4955867;28;127640;-68
2023/03/16 09:05:22;;;;;;;;;;;;;;;26.97;38.23;101446.03;4954818;28;98290;-64
2023/03/16 09:07:48;;;;;;;;;;;;;;;26.92;38.46;101449.06;4955665;28;97937;-64
2023/03/16 09:10:14;;;;;;;;;;;;;;;27.26;38.28;101438.47;4956465;28;124478;-64
2023/03/16 09:12:41;;;;;;;;;;;;;;;27.46;38.25;101442.09;4958826;28;98269;-68
2023/03/16 09:15:09;;;;;;;;;;;;;;;27.75;38.37;101433.34;4953441;28;123397;-64
2023/03/16 09:17:35;;;;;;;;;;;;;;;27.99;38.69;101432.28;4923223;28;99560;-67
2023/03/16 09:20:01;;;;;;;;;;;;;;;28.33;38.18;101438.13;4953800;28;99802;-68
2023/03/16 09:22:27;;;;;;;;;;;;;;;28.65;38.40;101429.66;4954015;28;98382;-67
2023/03/16 09:24:53;;;;;;;;;;;;;;;28.92;38.37;101434.13;4953933;28;126404;-65
2023/03/16 09:27:19;;;;;;;;;;;;;;;29.22;38.30;101430.69;4953313;28;106868;-65
2023/03/16 09:29:45;;;;;;;;;;;;;;;29.51;38.76;101434.72;4951257;28;128743;-68
2023/03/16 09:32:12;;;;;;;;;;;;;;;29.78;38.71;101435.53;4954317;28;129456;-68
2023/03/16 09:34:38;;;;;;;;;;;;;;;30.04;38.61;101434.72;4954945;28;97959;-65
2023/03/16 09:37:04;;;;;;;;;;;;;;;30.30;38.74;101425.50;4953380;28;122708;-68
2023/03/16 09:39:30;;;;;;;;;;;;;;;30.54;38.56;101418.66;4955518;28;98386;-68
2023/03/16 09:42:12;;;;;;;;;;;;;;;30.83;38.73;101427.31;4956162;28;98232;-64
2023/03/16 09:44:55;;;;;;;;;;;;;;;31.10;38.92;101427.94;4905385;28;98548;-68
2023/03/16 09:47:27;;;;;;;;;;;;;;;31.38;38.81;101432.97;4936854;28;98215;-68
2023/03/16 09:49:53;;;;;;;;;;;;;;;31.62;38.85;101425.97;4948592;28;98775;-67
2023/03/16 09:52:29;;;;;;;;;;;;;;;31.86;38.48;101428.13;4945536;28;128099;-68
2023/03/16 09:55:18;;;;;;;;;;;;;;;32.11;38.56;101431.03;4955512;28;98462;-65
2023/03/16 09:57:44;;;;;;;;;;;;;;;32.38;38.92;101417.56;4937742;28;98107;-66
2023/03/16 10:00:16;;;;;;;;;;;;;;;32.62;38.85;101424.44;4951835;28;98685;-65
2023/03/16 10:02:48;;;;;;;;;;;;;;;32.85;38.49;101432.44;4950138;28;100730;-68
2023/03/16 10:05:15;;;;;;;;;;;;;;;33.10;38.45;101428.91;4956459;28;97876;-67
2023/03/16 10:08:03;;;;;;;;;;;;;;;33.33;38.61;101423.69;4950831;28;97875;-68
2023/03/16 10:10:45;;;;;;;;;;;;;;;33.62;38.61;101421.66;4950938;28;123175;-68
2023/03/16 10:13:26;;;;;;;;;;;;;;;33.93;38.79;101411.59;4932954;28;98823;-68
2023/03/16 10:15:52;;;;;;;;;;;;;;;34.23;38.65;101403.88;4959359;28;126367;-66
2023/03/16 10:18:21;;;;;;;;;;;;;;;34.47;38.25;101408.56;4953938;28;100469;-66
2023/03/16 10:20:47;;;;;;;;;;;;;;;34.71;38.16;101408.84;4937020;28;110966;-68
2023/03/16 10:23:23;;;;;;;;;;;;;;;34.87;38.06;101407.09;4941813;28;100160;-66
2023/03/16 10:25:50;;;;;;;;;;;;;;;35.05;38.10;101404.16;4956090;28;98057;-68
2023/03/16 10:28:21;;;;;;;;;;;;;;;35.22;37.81;101399.63;4954612;28;97873;-67
2023/03/16 10:30:48;;;;;;;;;;;;;;;35.38;37.79;101396.28;4940944;28;105335;-66
2023/03/16 10:33:23;;;;;;;;;;;;;;;35.51;37.75;101402.94;4950540;28;98914;-66
2023/03/16 10:36:18;;;;;;;;;;;;;;;35.53;37.91;101396.91;4953338;28;98859;-66
2023/03/16 10:38:54;;;;;;;;;;;;;;;35.45;37.91;101390.59;4954114;28;97866;-65
2023/03/16 10:41:21;;;;;;;;;;;;;;;35.39;37.83;101387.44;4938046;28;99352;-68
2023/03/16 10:43:54;;;;;;;;;;;;;;;35.42;38.17;101377.41;4950786;28;98261;-65
2023/03/16 10:46:21;;;;;;;;;;;;;;;35.49;37.95;101373.75;4953689;28;126647;-66
2023/03/16 10:48:58;;;;;;;;;;;;;;;35.63;38.09;101376.41;4954893;28;98142;-65
2023/03/16 10:51:25;;;;;;;;;;;;;;;35.86;37.77;101370.91;4953631;28;98505;-69
2023/03/16 10:53:51;;;;;;;;;;;;;;;36.11;37.64;101375.41;4953594;28;98321;-65
2023/03/16 10:56:22;;;;;;;;;;;;;;;36.39;37.39;101368.59;4951875;28;128027;-70
2023/03/16 10:58:48;;;;;;;;;;;;;;;36.53;37.65;101371.22;4952296;28;99434;-69
2023/03/16 11:01:22;;;;;;;;;;;;;;;36.60;37.03;101364.69;4954548;28;108733;-66
2023/03/16 11:03:54;;;;;;;;;;;;;;;36.48;36.99;101362.50;4929851;28;98701;-68
2023/03/16 11:06:30;;;;;;;;;;;;;;;36.26;37.47;101361.97;4954813;28;98118;-68
2023/03/16 11:09:32;;;;;;;;;;;;;;;36.18;36.96;101350.06;4938804;28;98209;-68
2023/03/16 11:11:58;;;;;;;;;;;;;;;36.38;37.02;101347.38;4930160;28;98399;-68
2023/03/16 11:14:27;;;;;;;;;;;;;;;36.76;36.61;101352.81;4918490;28;103009;-65
2023/03/16 11:17:08;;;;;;;;;;;;;;;37.39;35.65;101346.47;4953875;28;97846;-67
2023/03/16 11:19:36;;;;;;;;;;;;;;;38.07;35.16;101351.50;4940449;28;98001;-68
2023/03/16 11:22:12;;;;;;;;;;;;;;;38.37;35.51;101344.03;4919191;28;98588;-66
2023/03/16 11:24:48;;;;;;;;;;;;;;;38.71;35.34;101340.75;4937063;28;121760;-66
2023/03/16 11:27:46;;;;;;;;;;;;;;;38.94;34.84;101340.56;4946365;28;98270;-68
2023/03/16 11:30:29;;;;;;;;;;;;;;;38.96;35.50;101326.06;4888533;28;98216;-66
2023/03/16 11:32:55;;;;;;;;;;;;;;;38.98;35.22;101332.81;4951534;28;98559;-65
2023/03/16 11:35:35;;;;;;;;;;;;;;;38.96;35.90;101335.28;4943457;28;98285;-66
2023/03/16 11:38:30;;;;;;;;;;;;;;;38.84;35.79;101330.41;4932765;28;98218;-66
2023/03/16 11:41:18;;;;;;;;;;;;;;;38.71;36.04;101321.84;4954885;28;97915;-69
2023/03/16 11:43:50;;;;;;;;;;;;;;;38.53;36.29;101313.84;4937864;28;98172;-68
2023/03/16 11:46:27;;;;;;;;;;;;;;;38.44;36.22;101312.91;4944426;28;98601;-66
2023/03/16 11:49:33;;;;;;;;;;;;;;;38.34;36.67;101302.69;4924325;28;99555;-69
2023/03/16 11:52:22;;;;;;;;;;;;;;;38.11;36.62;101304.38;4946067;28;119819;-69
2023/03/16 11:55:07;;;;;;;;;;;;;;;37.99;36.43;101297.44;4930845;28;99575;-65
2023/03/16 11:58:01;;;;;;;;;;;;;;;37.87;36.95;101283.22;4953717;28;99178;-66
2023/03/16 12:00:51;;;;;;;;;;;;;;;37.66;36.61;101279.69;4934077;28;98185;-69
2023/03/16 12:03:57;;;;;;;;;;;;;;;37.53;36.94;101279.56;4936841;28;98139;-69
2023/03/16 12:06:37;;;;;;;;;;;;;;;37.29;37.18;101275.19;4923289;28;98578;-67
2023/03/16 12:09:15;;;;;;;;;;;;;;;37.03;37.35;101271.31;4927615;28;99324;-66
2023/03/16 12:11:52;;;;;;;;;;;;;;;36.79;37.05;101267.72;4948033;28;98462;-69
2023/03/16 12:14:34;;;;;;;;;;;;;;;36.53;37.35;101267.38;4946308;28;100982;-65
2023/03/16 12:17:04;;;;;;;;;;;;;;;36.21;37.87;101264.28;4948668;28;112055;-69
2023/03/16 12:19:53;;;;;;;;;;;;;;;35.95;38.02;101254.63;4933253;28;125423;-63
2023/03/16 12:22:27;;;;;;;;;;;;;;;35.62;37.90;101257.88;4941666;28;98617;-63
2023/03/16 12:24:53;;;;;;;;;;;;;;;35.18;38.15;101253.22;4933507;28;98183;-65
2023/03/16 12:27:23;;;;;;;;;;;;;;;34.71;38.23;101255.69;4956384;28;98535;-68
2023/03/16 12:29:55;;;;;;;;;;;;;;;34.31;38.53;101255.22;4923697;28;99264;-68
2023/03/16 12:32:29;;;;;;;;;;;;;;;33.98;38.66;101256.63;4953080;28;98162;-68
2023/03/16 12:35:16;;;;;;;;;;;;;;;33.63;38.71;101264.00;4925433;28;116751;-65
2023/03/16 12:38:09;;;;;;;;;;;;;;;33.24;38.85;101247.38;4932391;28;98152;-69
2023/03/16 12:40:39;;;;;;;;;;;;;;;32.84;38.66;101249.44;4954431;28;98207;-65
2023/03/16 12:43:16;;;;;;;;;;;;;;;32.51;39.44;101250.69;4940090;28;98039;-65
2023/03/16 12:45:43;;;;;;;;;;;;;;;32.23;39.01;101249.44;4941253;28;122001;-65